Negotin, Serbia
Current Conditions -  °F | °C
As of 8:30 PM on Friday 31 Oct 2014 (Local Time) from LRCV Reporting Station
Clear Clear  
Wind Chill: 40°   Ceiling: Unl
Heat Index: 43°   Visibility: 4mi
Dew Point: 39°   Wind: 5mph
Humidity: 87%   Direction: 270°W
Pressure: 30.21"   Gusts: NA
Location:  44.23°N, 22.53°E
Report Text: LRCV 311830Z 27004KT 7000 NSC 06/04 Q1023
Loading
Personal Weather Stations






























Interactive Weather Map
Tropical Storm Tracking
New forecast layout! Learn more

10-Day Weather Forecast

Advertisements
Track Severe Weather on mobile